Satanta, KS

6:49 AM CST en Febrero 22, 2018 (GMT -0600)
MK19S | | Change Station

Alt 2909 ft 37.50 °N, 100.83 °W | Updated 14 minutes ago

Nublado
Nublado
20.0 ° F
Sensación térmica 10 ° F
N
8.0
Viento Variable Viento desde SE

Hoy
Alta -- | Baja -- ° F
--% Posibilidad de precipitaciones
Ayer
Alta -- | Baja -- ° F
Precip. -- pul
Presión 30.35 pul
Visibilidad 10.0 Millas
Nubes Muy nublado 1400 ft
Nublado 2300 ft
Vientos helados 10 ° F
Punto de rocío 12 ° F
Humedad 68%
Precipitaciones 0.05 pul
Espesor de la nieve No disponible.
7:24 AM 6:30 PM
Creciente, 41% visible
METAR KLBL 221156Z AUTO VRB03KT 10SM BKN014 OVC023 M07/M09 A3025 RMK AO2 SLP275 6//// 7//// T10671094 11050 21067 50004 FZRANO
Presión 30.35 pul
Visibilidad 10.0 Millas
Nubes Muy nublado 1400 ft
Nublado 2300 ft
Vientos helados 10 ° F
Punto de rocío 12 ° F
Humedad 68%
Precipitaciones 0.05 pul
Espesor de la nieve No disponible.
7:24 AM 6:30 PM
Creciente, 41% visible
METAR KLBL 221156Z AUTO VRB03KT 10SM BKN014 OVC023 M07/M09 A3025 RMK AO2 SLP275 6//// 7//// T10671094 11050 21067 50004 FZRANO

Get Severe Weather Alerts

Thanks for signing up!

Be on the lookout for a verification email in your inbox.

You'll start receiving the daily forecast at 6 AM.

×

10-Day Weather Forecast

Almanac

Astronomía

Feb. 22, 2018 Salida Puesta
Hora real
Crepúsculo civil
Crepúsculo náutico
Crepúsculo astronómico
Luna
Horas de luz
Horas de luz
Tomorrow will be .
, % of the Moon is Illuminated

Extremos de hoy

Máximos del estado Bajos del estado

Community

WunderPhotos

Category 6

Welcome to Category 6. This is the collective home for Weather Underground's featured writeups by Dr. Jeff Masters (right), Bob Henson (left), Chris Burt, and other regular contributors.

Nearby

Calidad del aire

  Calidad del aire Índice AQ Contaminante
Not available.

Grosos de nieve

Estación Profundido Altura

Actividad de terremotos

Ciudad Distance Mag. Tiempo y dato
Magnitud mínima muestra es 2,5.

Temperaturas de aguas costeras

Lugar Temperatura

Stations

Estaciones meteorológicas cercanas

Ubicación de la estación Temp. Vientos helados Punto de rocío Humedad Viento Precip. Alt Actualizado Tipo
                   

Watches & Warnings

There are currently no watches in effect.